Time;durP1;ratioP1;P1;durP2;ratioP2;P2;SDS_P1;SDS_P2;PMS_P1;PMS_P2;Temp;Humidity;BMP_temperature;BMP_pressure;BME280_temperature;BME280_humidity;BME280_pressure;Samples;Min_cycle;Max_cycle;Signal;HPM_P1;HPM_P2
2021/11/25 01:58:30;;;;;;;5.27;4.03;;;5.60;99.90;;;;;;5221291;23;20572;-92
2021/11/25 02:01:00;;;;;;;5.93;4.43;;;5.60;99.90;;;;;;4943242;29;20182;-94
2021/11/25 02:03:28;;;;;;;4.83;3.87;;;5.70;99.90;;;;;;4943822;28;20201;-93
2021/11/25 02:05:57;;;;;;;5.73;4.23;;;5.60;99.90;;;;;;4944111;28;20181;-94
2021/11/25 02:08:25;;;;;;;4.30;3.50;;;5.60;99.90;;;;;;4941683;29;20186;-96
2021/11/25 02:11:01;;;;;;;6.00;4.30;;;5.60;99.90;;;;;;4940849;29;20185;-95
2021/11/25 02:13:29;;;;;;;5.70;4.23;;;5.60;99.90;;;;;;4941973;29;20188;-92
2021/11/25 02:15:59;;;;;;;5.07;3.97;;;5.60;99.90;;;;;;4942192;29;20178;-92
2021/11/25 02:18:38;;;;;;;5.13;3.87;;;5.60;99.90;;;;;;4959087;29;20210;-94
2021/11/25 02:21:06;;;;;;;4.87;3.87;;;5.60;99.90;;;;;;4946614;29;20245;-93
2021/11/25 02:23:32;;;;;;;6.13;4.27;;;5.60;99.90;;;;;;4922355;29;20652;-92
2021/11/25 02:25:58;;;;;;;5.50;4.07;;;5.60;99.90;;;;;;4922234;29;20233;-93
2021/11/25 02:28:34;;;;;;;8.47;4.43;;;5.60;99.90;;;;;;4923104;29;20182;-94
2021/11/25 02:31:01;;;;;;;6.00;4.60;;;5.50;99.90;;;;;;4923851;29;20193;-93
2021/11/25 02:33:27;;;;;;;8.70;4.87;;;5.60;99.90;;;;;;4923927;29;20535;-91
2021/11/25 02:35:53;;;;;;;6.13;4.40;;;5.60;99.90;;;;;;4924438;29;20186;-93
2021/11/25 02:38:26;;;;;;;9.27;4.40;;;5.50;99.90;;;;;;4924194;29;20190;-92
2021/11/25 02:41:01;;;;;;;6.80;4.33;;;5.50;99.90;;;;;;4910003;29;20245;-92
2021/11/25 02:43:29;;;;;;;8.23;4.53;;;5.50;99.90;;;;;;4928146;29;20644;-93
2021/11/25 02:45:59;;;;;;;8.17;4.07;;;5.50;99.90;;;;;;4945944;29;20198;-96
2021/11/25 02:49:05;;;;;;;8.30;4.77;;;5.50;99.90;;;;;;4934329;29;20193;-94
2021/11/25 02:51:35;;;;;;;6.50;4.77;;;5.50;99.90;;;;;;4974646;28;20203;-96
2021/11/25 02:54:02;;;;;;;8.83;5.30;;;5.50;99.90;;;;;;4959479;28;20189;-96
2021/11/25 02:56:29;;;;;;;7.30;4.60;;;5.60;99.90;;;;;;4956600;28;20205;-94
2021/11/25 03:00:10;;;;;;;8.97;4.90;;;5.60;99.90;;;;;;4977441;29;20236;-95
2021/11/25 03:02:35;;;;;;;6.20;4.70;;;5.60;99.90;;;;;;4961178;28;20201;-96
2021/11/25 03:05:02;;;;;;;6.07;4.57;;;5.60;99.90;;;;;;4966059;28;20220;-95
2021/11/25 03:07:28;;;;;;;6.80;4.70;;;5.60;99.90;;;;;;4961625;29;20185;-95
2021/11/25 03:09:58;;;;;;;6.13;4.43;;;5.60;99.90;;;;;;4960585;29;20198;-96
2021/11/25 03:12:25;;;;;;;6.13;4.83;;;5.60;99.90;;;;;;4964761;28;20169;-96
2021/11/25 03:14:52;;;;;;;6.40;4.67;;;5.60;99.90;;;;;;4949920;28;20177;-92
2021/11/25 03:17:18;;;;;;;6.83;4.63;;;5.60;99.90;;;;;;4948538;29;20197;-96
2021/11/25 03:19:56;;;;;;;6.90;4.40;;;5.50;99.90;;;;;;4964978;28;20193;-96
2021/11/25 03:22:21;;;;;;;5.93;4.63;;;5.50;99.90;;;;;;4944984;29;20185;-96
2021/11/25 03:24:47;;;;;;;7.17;5.13;;;5.50;99.90;;;;;;4960962;28;20285;-96
2021/11/25 03:27:13;;;;;;;5.07;4.30;;;5.50;99.90;;;;;;4964876;28;20200;-95
2021/11/25 03:33:06;;;;;;;9.70;5.17;;;5.50;99.90;;;;;;4972111;29;20316;-93
2021/11/25 03:35:32;;;;;;;6.23;5.00;;;5.50;99.90;;;;;;4939535;29;20272;-93
2021/11/25 03:37:59;;;;;;;11.00;6.10;;;5.50;99.90;;;;;;4952808;29;20185;-93
2021/11/25 03:40:33;;;;;;;7.40;5.30;;;5.50;99.90;;;;;;4952567;29;20241;-92
2021/11/25 03:42:58;;;;;;;11.53;5.33;;;5.50;99.90;;;;;;4952038;29;20189;-92
2021/11/25 03:45:25;;;;;;;9.60;6.07;;;5.50;99.90;;;;;;4951385;29;20193;-93
2021/11/25 03:47:53;;;;;;;9.73;5.80;;;5.50;99.90;;;;;;4954270;29;20189;-93
2021/11/25 03:50:55;;;;;;;8.00;5.57;;;5.40;99.90;;;;;;4950557;28;20202;-96
2021/11/25 03:53:21;;;;;;;7.53;5.20;;;5.40;99.90;;;;;;4956563;28;20177;-95
2021/11/25 03:55:50;;;;;;;8.80;6.30;;;5.50;99.90;;;;;;4973234;28;20189;-95
2021/11/25 03:58:22;;;;;;;8.17;6.17;;;5.50;99.90;;;;;;4928879;29;20217;-94
2021/11/25 04:01:06;;;;;;;8.10;5.93;;;5.50;99.90;;;;;;4935952;29;20186;-94
2021/11/25 04:03:33;;;;;;;7.30;5.43;;;5.40;99.90;;;;;;4937150;29;20216;-96
2021/11/25 04:06:03;;;;;;;8.37;6.10;;;5.40;99.90;;;;;;4934250;29;20217;-96
2021/11/25 04:08:42;;;;;;;8.50;6.00;;;5.40;99.90;;;;;;4921346;29;20205;-94
2021/11/25 04:11:24;;;;;;;9.70;6.63;;;5.40;99.90;;;;;;4928793;29;20195;-96
2021/11/25 04:13:50;;;;;;;8.23;5.97;;;5.40;99.90;;;;;;4911919;29;20197;-96
2021/11/25 04:16:17;;;;;;;10.50;6.10;;;5.40;99.90;;;;;;4899859;29;20175;-95
2021/11/25 04:18:42;;;;;;;7.43;5.37;;;5.40;99.90;;;;;;4915823;29;20199;-95
2021/11/25 04:21:21;;;;;;;6.67;5.53;;;5.40;99.90;;;;;;4901893;29;20198;-93
2021/11/25 04:23:46;;;;;;;7.57;6.10;;;5.40;99.90;;;;;;4901295;29;20222;-95
2021/11/25 04:26:12;;;;;;;8.30;5.73;;;5.40;99.90;;;;;;4910436;29;20187;-96
2021/11/25 04:28:38;;;;;;;8.07;5.63;;;5.40;99.90;;;;;;4917170;29;20258;-93
2021/11/25 04:36:40;;;;;;;9.90;6.03;;;5.40;99.90;;;;;;4922263;29;20321;-93
2021/11/25 04:39:09;;;;;;;8.83;5.63;;;5.30;99.90;;;;;;4905308;29;20197;-93
2021/11/25 04:41:35;;;;;;;7.87;5.87;;;5.40;99.90;;;;;;4905257;29;20194;-93
2021/11/25 04:44:01;;;;;;;8.63;5.73;;;5.40;99.90;;;;;;4905085;29;20222;-94
2021/11/25 04:46:29;;;;;;;8.47;5.63;;;5.40;99.90;;;;;;4905579;29;20218;-94
2021/11/25 04:48:56;;;;;;;10.40;6.70;;;5.40;99.90;;;;;;4893183;29;20195;-91
2021/11/25 04:51:23;;;;;;;7.83;5.90;;;5.40;99.90;;;;;;4871744;29;20507;-92
2021/11/25 04:53:48;;;;;;;10.23;5.87;;;5.30;99.90;;;;;;4887140;29;20190;-94
2021/11/25 04:56:14;;;;;;;8.30;6.00;;;5.30;99.90;;;;;;4887793;29;20187;-93
2021/11/25 04:58:43;;;;;;;7.47;5.73;;;5.30;99.90;;;;;;4887814;29;20370;-93
2021/11/25 05:01:10;;;;;;;8.00;5.90;;;5.30;99.90;;;;;;4904985;29;20191;-93
2021/11/25 05:03:36;;;;;;;9.23;6.33;;;5.30;99.90;;;;;;4887462;29;20298;-93
2021/11/25 05:06:04;;;;;;;7.17;5.40;;;5.30;99.90;;;;;;4906028;29;20521;-92
2021/11/25 05:08:30;;;;;;;8.03;6.20;;;5.30;99.90;;;;;;4889918;29;20220;-92
2021/11/25 05:10:59;;;;;;;9.43;6.37;;;5.30;99.90;;;;;;4887481;29;20583;-93
2021/11/25 05:13:25;;;;;;;8.13;5.83;;;5.20;99.90;;;;;;4872984;29;20199;-93
2021/11/25 05:15:52;;;;;;;13.60;6.10;;;5.30;99.90;;;;;;4887280;29;20243;-94
2021/11/25 05:18:18;;;;;;;7.77;6.10;;;5.30;99.90;;;;;;4894635;29;20664;-94
2021/11/25 05:20:45;;;;;;;10.53;6.13;;;5.20;99.90;;;;;;4907241;29;20190;-93
2021/11/25 05:23:12;;;;;;;7.00;5.50;;;5.20;99.90;;;;;;4908433;29;20229;-92
2021/11/25 05:25:43;;;;;;;9.30;6.20;;;5.20;99.90;;;;;;4906721;29;20206;-95
2021/11/25 05:28:09;;;;;;;8.57;6.17;;;5.20;99.90;;;;;;4905977;29;20520;-95
2021/11/25 05:31:05;;;;;;;8.60;5.57;;;5.20;99.90;;;;;;4906691;29;20198;-95
2021/11/25 05:33:34;;;;;;;9.27;5.20;;;5.20;99.90;;;;;;4907703;29;20191;-96
2021/11/25 05:35:59;;;;;;;8.53;5.60;;;5.20;99.90;;;;;;4905793;29;20198;-96
2021/11/25 05:38:26;;;;;;;7.60;5.63;;;5.20;99.90;;;;;;4905320;29;20194;-96
2021/11/25 05:41:12;;;;;;;7.37;5.53;;;5.30;99.90;;;;;;4904110;29;20673;-96
2021/11/25 05:43:37;;;;;;;6.93;5.30;;;5.20;99.90;;;;;;4905165;29;20764;-96
2021/11/25 05:46:03;;;;;;;7.67;5.87;;;5.20;99.90;;;;;;4905548;29;20273;-96
2021/11/25 05:48:29;;;;;;;7.30;5.57;;;5.20;99.90;;;;;;4890263;29;20515;-91
2021/11/25 05:50:55;;;;;;;7.07;5.50;;;5.20;99.90;;;;;;4922504;29;20201;-93
2021/11/25 05:53:21;;;;;;;7.07;5.70;;;5.20;99.90;;;;;;4903341;29;20183;-92
2021/11/25 05:55:48;;;;;;;8.73;6.50;;;5.20;99.90;;;;;;4903269;29;20348;-93
2021/11/25 05:58:14;;;;;;;7.87;6.07;;;5.20;99.90;;;;;;4902293;29;20658;-93
2021/11/25 06:00:42;;;;;;;9.13;6.23;;;5.20;99.90;;;;;;4902515;29;20191;-92
2021/11/25 06:03:07;;;;;;;8.07;6.00;;;5.10;99.90;;;;;;4904214;29;20194;-92
2021/11/25 06:05:35;;;;;;;8.50;6.70;;;5.20;99.90;;;;;;4920574;29;20202;-93
2021/11/25 06:08:02;;;;;;;10.00;6.37;;;5.10;99.90;;;;;;4902647;29;20187;-93
2021/11/25 06:10:29;;;;;;;10.33;5.83;;;5.10;99.90;;;;;;4903187;29;20202;-92
2021/11/25 06:12:56;;;;;;;7.87;6.33;;;5.20;99.90;;;;;;4920379;29;20249;-92
2021/11/25 06:15:22;;;;;;;8.87;6.50;;;5.10;99.90;;;;;;4902756;29;20198;-93
2021/11/25 06:17:49;;;;;;;10.10;6.07;;;5.20;99.90;;;;;;4902986;29;20229;-93
2021/11/25 06:20:25;;;;;;;8.83;6.50;;;5.10;99.90;;;;;;4903499;29;20191;-93
2021/11/25 06:22:52;;;;;;;8.30;6.77;;;5.20;99.90;;;;;;4904957;29;20190;-95
2021/11/25 06:25:20;;;;;;;8.23;6.10;;;5.10;99.90;;;;;;4903189;29;20237;-93
2021/11/25 06:27:46;;;;;;;8.80;6.40;;;5.10;99.90;;;;;;4903631;29;20250;-96
2021/11/25 06:30:13;;;;;;;9.27;6.67;;;5.20;99.90;;;;;;4901949;29;20198;-96
2021/11/25 06:32:41;;;;;;;9.60;6.40;;;5.10;99.90;;;;;;4903088;29;20273;-95
2021/11/25 06:35:10;;;;;;;8.03;6.40;;;5.20;99.90;;;;;;4903352;29;20194;-95
2021/11/25 06:37:37;;;;;;;9.50;6.07;;;5.10;99.90;;;;;;4904371;29;20191;-93
2021/11/25 06:40:03;;;;;;;8.03;6.17;;;5.10;99.90;;;;;;4908151;29;20246;-94
2021/11/25 06:42:31;;;;;;;7.80;5.83;;;5.10;99.90;;;;;;4906147;29;20195;-93
2021/11/25 06:44:56;;;;;;;9.20;6.57;;;5.10;99.90;;;;;;4907524;29;20273;-93
2021/11/25 06:47:22;;;;;;;7.57;6.03;;;5.10;99.90;;;;;;4906547;29;20186;-94
2021/11/25 06:49:48;;;;;;;8.77;6.10;;;5.20;99.90;;;;;;4906793;29;20262;-94
2021/11/25 06:52:16;;;;;;;7.37;6.23;;;5.10;99.90;;;;;;4907963;29;20206;-93
2021/11/25 06:54:41;;;;;;;9.47;6.47;;;5.10;99.90;;;;;;4909161;29;20231;-95
2021/11/25 06:57:08;;;;;;;7.83;5.87;;;5.20;99.90;;;;;;4911779;29;20191;-93
2021/11/25 06:59:34;;;;;;;12.33;7.17;;;5.20;99.90;;;;;;4925547;29;20205;-92
2021/11/25 07:02:13;;;;;;;8.67;6.53;;;5.20;99.90;;;;;;4929616;29;20193;-92
2021/11/25 07:04:38;;;;;;;11.33;6.67;;;5.20;99.90;;;;;;4933580;29;20225;-93
2021/11/25 07:07:06;;;;;;;9.13;6.47;;;5.20;99.90;;;;;;4934185;29;20277;-96
2021/11/25 07:09:32;;;;;;;8.17;6.33;;;5.20;99.90;;;;;;4914789;29;20205;-96
2021/11/25 07:11:59;;;;;;;8.20;6.13;;;5.10;99.90;;;;;;4914685;29;20198;-96
2021/11/25 07:14:25;;;;;;;10.03;5.90;;;5.10;99.90;;;;;;4930598;29;20186;-96
2021/11/25 07:16:52;;;;;;;7.33;6.13;;;5.10;99.90;;;;;;4946584;29;20220;-96
2021/11/25 07:19:18;;;;;;;10.47;6.63;;;5.10;99.90;;;;;;4930779;29;20633;-96
2021/11/25 07:21:46;;;;;;;11.17;5.80;;;5.10;99.90;;;;;;4914739;29;20210;-95
2021/11/25 07:24:12;;;;;;;6.80;5.73;;;5.10;99.90;;;;;;4934607;29;20217;-94
2021/11/25 07:26:38;;;;;;;7.70;5.90;;;5.10;99.90;;;;;;4934277;29;20613;-93
2021/11/25 07:29:04;;;;;;;7.53;6.03;;;5.10;99.90;;;;;;4930915;29;20229;-93
2021/11/25 07:31:32;;;;;;;7.57;5.77;;;5.10;99.90;;;;;;4933062;29;20186;-96
2021/11/25 07:33:58;;;;;;;8.07;6.43;;;5.10;99.90;;;;;;4931889;29;20225;-93
2021/11/25 07:36:32;;;;;;;8.13;6.40;;;5.10;99.90;;;;;;4929338;29;20225;-96
2021/11/25 07:39:03;;;;;;;7.90;6.00;;;5.10;99.90;;;;;;4930324;29;20225;-93
2021/11/25 07:41:33;;;;;;;9.60;6.30;;;5.10;99.90;;;;;;4933215;29;20178;-96
2021/11/25 07:43:58;;;;;;;9.73;6.23;;;5.10;99.90;;;;;;4932379;29;20221;-95
2021/11/25 07:46:27;;;;;;;8.20;6.30;;;5.10;99.90;;;;;;4936145;29;20190;-96
2021/11/25 07:48:53;;;;;;;7.87;6.13;;;5.10;99.90;;;;;;4935749;29;20189;-95
2021/11/25 07:51:32;;;;;;;7.97;6.37;;;5.10;99.90;;;;;;4930762;29;20200;-94
2021/11/25 07:54:01;;;;;;;8.00;6.33;;;5.10;99.90;;;;;;4926908;29;20300;-92
2021/11/25 07:56:27;;;;;;;8.37;6.77;;;5.10;99.90;;;;;;4929217;29;20193;-94
2021/11/25 07:58:53;;;;;;;7.57;6.27;;;5.10;99.90;;;;;;4922669;29;20232;-90
2021/11/25 08:04:42;;;;;;;8.43;6.40;;;5.10;99.90;;;;;;4962121;28;20201;-92
2021/11/25 08:07:18;;;;;;;8.67;5.73;;;5.10;99.90;;;;;;4945496;29;20241;-91
2021/11/25 08:09:53;;;;;;;7.80;5.90;;;5.10;99.90;;;;;;4930235;29;20178;-92
2021/11/25 08:12:47;;;;;;;8.07;6.13;;;5.20;99.90;;;;;;4946160;29;20185;-91
2021/11/25 08:15:13;;;;;;;10.93;6.63;;;5.20;99.90;;;;;;4945599;29;20174;-91
2021/11/25 08:17:40;;;;;;;7.43;6.07;;;5.20;99.90;;;;;;4946111;29;20194;-90
2021/11/25 08:20:30;;;;;;;9.77;6.87;;;5.20;99.90;;;;;;4945913;29;20201;-91
2021/11/25 08:23:07;;;;;;;11.07;6.53;;;5.20;99.90;;;;;;4962280;28;20166;-91
2021/11/25 08:25:33;;;;;;;10.90;6.53;;;5.30;99.90;;;;;;4930573;29;20212;-91
2021/11/25 08:28:01;;;;;;;7.97;6.27;;;5.20;99.90;;;;;;4945816;28;20194;-92
2021/11/25 08:30:31;;;;;;;7.80;6.43;;;5.30;99.90;;;;;;4940545;29;20178;-91
2021/11/25 08:33:26;;;;;;;8.60;6.43;;;5.30;99.90;;;;;;4929815;28;20170;-94
2021/11/25 08:35:52;;;;;;;8.07;6.33;;;5.30;99.90;;;;;;4943552;29;20162;-91
2021/11/25 08:38:18;;;;;;;8.80;6.97;;;5.30;99.90;;;;;;4944698;29;20226;-96
2021/11/25 08:40:45;;;;;;;7.90;6.30;;;5.30;99.90;;;;;;4936768;29;20190;-96
2021/11/25 08:43:12;;;;;;;8.00;6.60;;;5.30;99.90;;;;;;4935083;29;20522;-95
2021/11/25 08:45:38;;;;;;;9.83;6.70;;;5.40;99.90;;;;;;4931716;29;20190;-95
2021/11/25 08:48:04;;;;;;;8.70;6.43;;;5.40;99.90;;;;;;4922068;29;20653;-95
2021/11/25 08:50:30;;;;;;;10.17;6.50;;;5.40;99.90;;;;;;4907449;29;20194;-95
2021/11/25 08:53:22;;;;;;;8.30;6.77;;;5.30;99.90;;;;;;4891119;29;20250;-96
2021/11/25 08:55:49;;;;;;;7.43;6.10;;;5.20;99.90;;;;;;4903505;29;20197;-95
2021/11/25 08:58:16;;;;;;;9.17;6.93;;;5.20;99.90;;;;;;4903117;29;20241;-95
2021/11/25 09:00:42;;;;;;;8.47;6.63;;;5.20;99.90;;;;;;4904214;29;20179;-95
2021/11/25 09:03:08;;;;;;;9.57;6.40;;;5.20;99.90;;;;;;4903495;29;20237;-95
2021/11/25 09:05:34;;;;;;;9.23;6.43;;;5.30;99.90;;;;;;4903110;29;20202;-94
2021/11/25 09:08:01;;;;;;;8.40;6.73;;;5.30;99.90;;;;;;4916444;29;20198;-95
2021/11/25 09:10:27;;;;;;;9.93;6.90;;;5.30;99.90;;;;;;4919073;29;20186;-95
2021/11/25 09:12:54;;;;;;;8.20;6.37;;;5.40;99.90;;;;;;4919075;29;20239;-95
2021/11/25 09:15:21;;;;;;;9.07;6.73;;;5.40;99.90;;;;;;4921697;29;20297;-96
2021/11/25 09:17:47;;;;;;;9.37;7.03;;;5.50;99.90;;;;;;4921682;29;20541;-94
2021/11/25 09:20:13;;;;;;;9.47;7.70;;;5.50;99.90;;;;;;4921883;29;20186;-95
2021/11/25 09:22:40;;;;;;;8.13;7.10;;;5.50;99.90;;;;;;4905279;29;20197;-95
2021/11/25 09:25:07;;;;;;;9.47;7.50;;;5.50;99.90;;;;;;4902601;29;20321;-94
2021/11/25 09:27:33;;;;;;;12.93;7.43;;;5.60;99.90;;;;;;4902760;29;20186;-95
2021/11/25 09:29:59;;;;;;;10.07;7.77;;;5.60;99.90;;;;;;4902676;29;20197;-95
2021/11/25 09:32:35;;;;;;;11.07;7.63;;;5.70;99.90;;;;;;4903069;29;20640;-94
2021/11/25 09:35:01;;;;;;;8.97;6.77;;;5.70;99.90;;;;;;4903093;29;20175;-95
2021/11/25 09:37:29;;;;;;;10.17;7.57;;;5.70;99.90;;;;;;4902879;29;20217;-93
2021/11/25 09:39:55;;;;;;;9.80;7.67;;;5.70;99.90;;;;;;4902645;29;20269;-94
2021/11/25 09:42:21;;;;;;;12.53;9.03;;;5.80;99.90;;;;;;4902589;29;20705;-95
2021/11/25 09:44:47;;;;;;;10.97;8.07;;;5.90;99.90;;;;;;4902424;29;20237;-95
2021/11/25 09:47:15;;;;;;;11.77;9.03;;;5.80;99.90;;;;;;4902277;29;20186;-94
2021/11/25 09:49:41;;;;;;;13.00;9.07;;;5.80;99.90;;;;;;4919880;29;20206;-95
2021/11/25 09:52:07;;;;;;;14.00;9.10;;;5.90;99.90;;;;;;4921333;29;20190;-96
2021/11/25 09:54:33;;;;;;;13.60;9.70;;;5.90;99.90;;;;;;4921256;29;20249;-96
2021/11/25 09:56:59;;;;;;;13.60;10.27;;;5.90;99.90;;;;;;4921270;29;20203;-96
2021/11/25 09:59:25;;;;;;;13.33;10.27;;;6.00;99.90;;;;;;4902113;29;20240;-95
2021/11/25 10:01:51;;;;;;;16.50;10.53;;;6.00;99.90;;;;;;4902677;29;20241;-96
2021/11/25 10:04:20;;;;;;;15.03;10.93;;;6.00;99.90;;;;;;4902263;29;20661;-96
2021/11/25 10:06:50;;;;;;;14.50;11.07;;;6.00;99.90;;;;;;4902201;29;20528;-96
2021/11/25 10:09:16;;;;;;;14.93;11.40;;;6.00;99.90;;;;;;4902271;29;20237;-95
2021/11/25 10:11:42;;;;;;;17.73;11.37;;;6.10;99.90;;;;;;4903862;29;20277;-96
2021/11/25 10:14:13;;;;;;;16.13;10.93;;;6.10;99.90;;;;;;4908281;29;20642;-96
2021/11/25 10:16:40;;;;;;;14.93;10.50;;;6.20;99.90;;;;;;4908449;29;20218;-95
2021/11/25 10:19:13;;;;;;;16.40;10.93;;;6.40;99.90;;;;;;4908333;29;20198;-95
2021/11/25 10:21:42;;;;;;;14.13;10.67;;;6.50;99.90;;;;;;4908526;29;20277;-96
2021/11/25 10:24:43;;;;;;;13.63;10.57;;;6.50;99.90;;;;;;4909043;29;20564;-96
2021/11/25 10:27:25;;;;;;;17.70;11.90;;;6.50;99.90;;;;;;4892243;29;20605;-96
2021/11/25 10:30:11;;;;;;;17.20;10.57;;;6.40;99.90;;;;;;4908377;29;20190;-96
2021/11/25 10:32:57;;;;;;;14.27;10.03;;;6.40;99.90;;;;;;4908552;29;20179;-95
2021/11/25 10:35:27;;;;;;;15.10;10.87;;;6.30;99.90;;;;;;4908457;29;20190;-96
2021/11/25 10:38:20;;;;;;;18.77;11.40;;;6.30;99.90;;;;;;4909060;29;20233;-94
2021/11/25 10:40:38;;;;;;;15.27;11.37;;;6.30;99.90;;;;;;4925010;29;20193;-95
2021/11/25 10:43:29;;;;;;;17.00;11.60;;;6.30;99.90;;;;;;4908213;29;20512;-96
2021/11/25 10:45:55;;;;;;;16.43;11.00;;;6.40;99.90;;;;;;4908088;29;20191;-96
2021/11/25 10:48:35;;;;;;;15.57;12.13;;;6.50;99.90;;;;;;4907619;29;20198;-96
2021/11/25 10:51:21;;;;;;;16.57;11.67;;;6.70;99.90;;;;;;4897758;29;20289;-96
2021/11/25 10:54:10;;;;;;;21.93;12.30;;;6.70;99.90;;;;;;4907941;29;20222;-96
2021/11/25 10:56:49;;;;;;;17.80;12.90;;;6.70;99.90;;;;;;4908754;29;20193;-96
2021/11/25 10:59:17;;;;;;;17.57;13.00;;;6.60;99.90;;;;;;4907925;29;20568;-96
2021/11/25 11:01:51;;;;;;;17.47;12.60;;;6.60;99.90;;;;;;4907920;29;20190;-96
2021/11/25 11:04:22;;;;;;;18.83;13.47;;;6.60;99.90;;;;;;4908046;29;20218;-96
2021/11/25 11:06:48;;;;;;;18.40;13.47;;;6.50;99.90;;;;;;4908313;29;20178;-96
2021/11/25 11:09:39;;;;;;;19.83;12.83;;;6.60;99.90;;;;;;4909222;29;20282;-96
2021/11/25 11:12:35;;;;;;;18.57;13.10;;;6.60;99.90;;;;;;4908086;29;20229;-95
2021/11/25 11:20:44;;;;;;;20.40;12.90;;;6.60;99.90;;;;;;4925095;29;20176;-96
2021/11/25 11:23:12;;;;;;;18.57;13.00;;;6.60;99.90;;;;;;4906574;29;20179;-95
2021/11/25 11:25:42;;;;;;;21.40;13.77;;;6.50;99.90;;;;;;4906299;29;20223;-96
2021/11/25 11:28:11;;;;;;;19.07;13.93;;;6.50;99.90;;;;;;4904961;29;20246;-96
2021/11/25 11:30:39;;;;;;;22.47;14.20;;;6.60;99.90;;;;;;4905529;29;20237;-96
2021/11/25 11:33:28;;;;;;;21.50;13.60;;;6.60;99.90;;;;;;4905038;29;20509;-96
2021/11/25 11:35:56;;;;;;;17.40;14.03;;;6.60;99.90;;;;;;4905251;29;20174;-96
2021/11/25 11:38:27;;;;;;;22.43;13.87;;;6.50;99.90;;;;;;4906253;29;20320;-96
2021/11/25 11:40:55;;;;;;;24.03;14.70;;;6.50;99.90;;;;;;4905250;29;20245;-96
2021/11/25 11:43:49;;;;;;;21.67;14.93;;;6.50;99.90;;;;;;4904533;29;20697;-96
2021/11/25 11:46:18;;;;;;;20.90;13.87;;;6.40;99.90;;;;;;4905790;29;20187;-96
2021/11/25 11:48:45;;;;;;;19.53;13.10;;;6.40;99.90;;;;;;4905621;29;20194;-96
2021/11/25 11:51:17;;;;;;;18.43;13.73;;;6.40;99.90;;;;;;4904651;29;20221;-96
2021/11/25 11:53:51;;;;;;;20.90;14.57;;;6.40;99.90;;;;;;4905170;29;20191;-96
2021/11/25 11:56:18;;;;;;;19.23;13.57;;;6.40;99.90;;;;;;4904691;29;20187;-95
2021/11/25 11:58:53;;;;;;;25.27;14.77;;;6.40;99.90;;;;;;4907182;29;20242;-96
2021/11/25 12:01:21;;;;;;;20.70;14.33;;;6.40;99.90;;;;;;4904359;29;20205;-96
2021/11/25 12:03:51;;;;;;;18.53;13.67;;;6.30;99.90;;;;;;4904175;29;20230;-93
2021/11/25 12:06:42;;;;;;;16.97;13.03;;;6.30;99.90;;;;;;4904641;29;20241;-95
2021/11/25 12:09:14;;;;;;;20.47;13.90;;;6.30;99.90;;;;;;4904148;29;20622;-94
2021/11/25 12:11:50;;;;;;;20.40;13.47;;;6.30;99.90;;;;;;4904107;29;20199;-96
2021/11/25 12:14:43;;;;;;;19.00;13.73;;;6.30;99.90;;;;;;4904026;29;20254;-96
2021/11/25 12:17:11;;;;;;;20.90;14.00;;;6.20;99.90;;;;;;4904122;29;20191;-96
2021/11/25 12:19:43;;;;;;;23.57;15.20;;;6.20;99.90;;;;;;4903933;29;20218;-95
2021/11/25 12:22:12;;;;;;;24.93;14.53;;;6.20;99.90;;;;;;4885433;29;20219;-96
2021/11/25 12:25:01;;;;;;;21.27;14.53;;;6.20;99.90;;;;;;4893663;29;20261;-96
2021/11/25 12:27:44;;;;;;;20.47;13.70;;;6.20;99.90;;;;;;4919498;29;20178;-94
2021/11/25 12:30:17;;;;;;;20.17;13.30;;;6.30;99.90;;;;;;4922865;29;20197;-95
2021/11/25 12:32:47;;;;;;;16.93;13.30;;;6.20;99.90;;;;;;4922637;29;20178;-96
2021/11/25 12:35:38;;;;;;;17.77;12.87;;;6.30;99.90;;;;;;4924767;29;20272;-96
2021/11/25 12:38:08;;;;;;;17.83;13.67;;;6.30;99.90;;;;;;4929701;29;20186;-93
2021/11/25 12:40:37;;;;;;;16.60;12.80;;;6.30;99.90;;;;;;4950166;29;20193;-94
2021/11/25 12:43:12;;;;;;;16.97;12.53;;;6.40;99.90;;;;;;4934252;29;20189;-94
2021/11/25 12:45:56;;;;;;;17.47;13.17;;;6.40;99.90;;;;;;4932683;29;20588;-94
2021/11/25 12:48:37;;;;;;;18.53;13.77;;;6.40;99.90;;;;;;4928623;29;20285;-93
2021/11/25 12:51:09;;;;;;;16.43;12.57;;;6.40;99.90;;;;;;4931781;29;20234;-94
2021/11/25 12:53:39;;;;;;;19.10;12.97;;;6.40;99.90;;;;;;4932996;29;20181;-95
2021/11/25 12:56:42;;;;;;;14.87;12.20;;;6.40;99.90;;;;;;4931123;29;20245;-96
2021/11/25 12:59:20;;;;;;;16.17;12.67;;;6.40;99.90;;;;;;4960776;29;20239;-95
2021/11/25 13:02:07;;;;;;;15.33;12.60;;;6.30;99.90;;;;;;4968366;29;20692;-94
2021/11/25 13:04:48;;;;;;;17.63;13.23;;;6.30;99.90;;;;;;4967230;29;20221;-94
2021/11/25 13:07:17;;;;;;;15.20;12.67;;;6.30;99.90;;;;;;4948272;29;20233;-95
2021/11/25 13:09:46;;;;;;;16.23;12.70;;;6.20;99.90;;;;;;4948642;29;20765;-94
2021/11/25 13:12:12;;;;;;;18.63;13.03;;;6.20;99.90;;;;;;4963569;29;20221;-93
2021/11/25 13:14:52;;;;;;;17.33;12.87;;;6.20;99.90;;;;;;4948525;29;20193;-94
2021/11/25 13:17:19;;;;;;;18.87;13.20;;;6.20;99.90;;;;;;4947434;29;20390;-95
2021/11/25 13:19:50;;;;;;;18.47;13.40;;;6.20;99.90;;;;;;4948643;29;20196;-96
2021/11/25 13:22:16;;;;;;;18.93;12.90;;;6.10;99.90;;;;;;4948394;29;20173;-95
2021/11/25 13:25:01;;;;;;;17.87;12.87;;;6.10;99.90;;;;;;4954176;29;20217;-95
2021/11/25 13:27:27;;;;;;;15.47;12.77;;;6.10;99.90;;;;;;4923524;29;20212;-94
2021/11/25 13:30:00;;;;;;;18.93;12.97;;;6.10;99.90;;;;;;4922733;29;20614;-96
2021/11/25 13:32:27;;;;;;;15.03;12.10;;;6.10;99.90;;;;;;4921904;29;20221;-95
2021/11/25 13:34:57;;;;;;;16.03;12.70;;;6.10;99.90;;;;;;4922659;29;20162;-95
2021/11/25 13:37:39;;;;;;;16.17;11.77;;;6.10;99.90;;;;;;4922004;29;20194;-95
2021/11/25 13:40:09;;;;;;;14.27;11.63;;;6.00;99.90;;;;;;4923534;29;20186;-94
2021/11/25 13:42:41;;;;;;;14.53;11.73;;;6.00;99.90;;;;;;4922548;29;20232;-94
2021/11/25 13:45:31;;;;;;;16.53;11.93;;;6.00;99.90;;;;;;4922428;29;20676;-93
2021/11/25 13:47:56;;;;;;;15.90;11.60;;;5.90;99.90;;;;;;4921569;29;20182;-94
2021/11/25 13:50:24;;;;;;;14.33;11.47;;;5.90;99.90;;;;;;4922173;29;20237;-94
2021/11/25 13:53:02;;;;;;;13.63;10.87;;;6.00;99.90;;;;;;4923253;29;20234;-95
2021/11/25 13:55:38;;;;;;;17.33;11.27;;;6.00;99.90;;;;;;4909219;29;20369;-94
2021/11/25 13:58:06;;;;;;;16.13;11.67;;;6.00;99.90;;;;;;4917160;29;20233;-95
2021/11/25 14:00:38;;;;;;;16.60;12.07;;;6.00;99.90;;;;;;4904676;29;20201;-96
2021/11/25 14:03:09;;;;;;;16.03;12.77;;;6.00;99.90;;;;;;4903728;29;20218;-96
2021/11/25 14:05:53;;;;;;;16.73;12.73;;;6.00;99.90;;;;;;4903439;29;20249;-96
2021/11/25 14:08:28;;;;;;;15.97;12.47;;;6.00;99.90;;;;;;4889470;29;20250;-93
2021/11/25 14:10:54;;;;;;;17.80;13.00;;;5.90;99.90;;;;;;4903937;29;20185;-96
2021/11/25 14:13:29;;;;;;;18.10;13.50;;;6.00;99.90;;;;;;4904963;29;20246;-94
2021/11/25 14:16:38;;;;;;;20.13;13.93;;;5.90;99.90;;;;;;4906898;29;20186;-96
2021/11/25 14:19:18;;;;;;;19.63;13.37;;;5.90;99.90;;;;;;4925087;29;20202;-95
2021/11/25 14:21:46;;;;;;;17.40;13.53;;;5.90;99.90;;;;;;4908335;29;20194;-94
2021/11/25 14:24:17;;;;;;;17.40;13.40;;;5.80;99.90;;;;;;4906302;29;20271;-96
2021/11/25 14:32:44;;;;;;;20.00;14.20;;;5.70;99.90;;;;;;4923523;29;20262;-94
2021/11/25 14:35:38;;;;;;;20.60;15.40;;;5.70;99.90;;;;;;4906712;29;20521;-94
2021/11/25 14:38:10;;;;;;;17.97;14.00;;;5.60;99.90;;;;;;4906930;29;20195;-93
2021/11/25 14:40:38;;;;;;;21.67;14.37;;;5.50;99.90;;;;;;4906248;29;20183;-94
2021/11/25 14:43:14;;;;;;;23.27;15.13;;;5.50;99.90;;;;;;4902842;29;20623;-95
2021/11/25 14:45:43;;;;;;;20.20;15.50;;;5.60;99.90;;;;;;4902240;29;20344;-95
2021/11/25 14:48:28;;;;;;;17.97;14.90;;;5.50;99.90;;;;;;4902537;29;20183;-94
2021/11/25 14:51:12;;;;;;;20.57;15.10;;;5.50;99.90;;;;;;4902192;29;20649;-94
2021/11/25 14:53:41;;;;;;;22.43;15.10;;;5.50;99.90;;;;;;4903226;29;20183;-95
2021/11/25 14:56:26;;;;;;;23.67;15.63;;;5.50;99.90;;;;;;4902324;29;20190;-94
2021/11/25 14:58:58;;;;;;;23.77;16.07;;;5.50;99.90;;;;;;4904159;29;20321;-94
2021/11/25 15:01:37;;;;;;;24.13;17.27;;;5.40;99.90;;;;;;4905902;29;20194;-95
2021/11/25 15:04:08;;;;;;;22.70;16.90;;;5.40;99.90;;;;;;4906186;29;20209;-95
2021/11/25 15:06:47;;;;;;;24.10;16.87;;;5.40;99.90;;;;;;4905959;29;20246;-94
2021/11/25 15:09:18;;;;;;;22.40;16.27;;;5.40;99.90;;;;;;4905670;29;20186;-95
2021/11/25 15:11:49;;;;;;;21.50;16.83;;;5.40;99.90;;;;;;4906727;29;20185;-94
2021/11/25 15:14:20;;;;;;;26.13;17.43;;;5.40;99.90;;;;;;4925249;29;20271;-95
2021/11/25 15:17:06;;;;;;;22.33;17.43;;;5.40;99.90;;;;;;4905508;29;20183;-93
2021/11/25 15:19:33;;;;;;;24.80;17.93;;;5.40;99.90;;;;;;4906150;29;20245;-94
2021/11/25 15:21:59;;;;;;;24.60;17.40;;;5.30;99.90;;;;;;4907630;29;20195;-93
2021/11/25 15:24:30;;;;;;;27.90;19.07;;;5.30;99.90;;;;;;4915339;29;20554;-93
2021/11/25 15:27:17;;;;;;;25.23;18.00;;;5.30;99.90;;;;;;4916632;29;20214;-95
2021/11/25 15:29:43;;;;;;;24.90;18.07;;;5.30;99.90;;;;;;4909947;29;20194;-93
2021/11/25 15:32:08;;;;;;;26.73;19.13;;;5.30;99.90;;;;;;4905208;29;20201;-95